Time;durP1;ratioP1;P1;durP2;ratioP2;P2;SDS_P1;SDS_P2;PMS_P1;PMS_P2;Temp;Humidity;BMP_temperature;BMP_pressure;BME280_temperature;BME280_humidity;BME280_pressure;Samples;Min_cycle;Max_cycle;Signal;HPM_P1;HPM_P2
2023/05/09 00:01:10;;;;;;;49.22;33.22;;;;;;;13.94;100.00;101732.81;4937246;29;20131;-84
2023/05/09 00:03:35;;;;;;;53.78;32.83;;;;;;;14.01;100.00;101746.25;4936924;29;20036;-78
2023/05/09 00:06:01;;;;;;;53.53;33.70;;;;;;;13.92;100.00;101723.47;4937335;29;20031;-84
2023/05/09 00:08:26;;;;;;;50.83;32.35;;;;;;;14.13;100.00;101760.22;4935605;29;20052;-76
2023/05/09 00:10:52;;;;;;;50.50;34.15;;;;;;;14.10;100.00;101752.66;4937125;29;20028;-84
2023/05/09 00:13:18;;;;;;;48.20;31.60;;;;;;;14.17;100.00;101743.53;4937588;29;20063;-75
2023/05/09 00:15:45;;;;;;;50.47;32.47;;;;;;;14.23;100.00;101743.13;4937031;29;20032;-75
2023/05/09 00:18:11;;;;;;;47.83;30.55;;;;;;;14.21;100.00;101743.25;4936814;29;20122;-75
2023/05/09 00:20:37;;;;;;;43.88;29.67;;;;;;;14.05;100.00;101717.38;4936916;29;20106;-76
2023/05/09 00:23:03;;;;;;;46.40;28.77;;;;;;;14.13;100.00;101729.06;4936922;29;20106;-75
2023/05/09 00:25:29;;;;;;;47.50;30.45;;;;;;;13.98;100.00;101710.09;4936923;29;20436;-75
2023/05/09 00:27:54;;;;;;;42.83;28.80;;;;;;;14.12;100.00;101723.03;4936852;29;20032;-75
2023/05/09 00:30:19;;;;;;;42.38;28.45;;;;;;;14.28;100.00;101741.09;4936600;29;20095;-75
2023/05/09 00:32:44;;;;;;;41.67;27.25;;;;;;;13.98;100.00;101687.56;4936410;29;20028;-75
2023/05/09 00:35:10;;;;;;;41.70;26.95;;;;;;;14.16;100.00;101711.53;4919163;29;20046;-76
2023/05/09 00:37:35;;;;;;;36.33;25.83;;;;;;;14.29;100.00;101732.38;4936743;29;20035;-74
2023/05/09 00:40:01;;;;;;;38.88;24.83;;;;;;;14.25;100.00;101734.31;4936764;29;20102;-75
2023/05/09 00:42:27;;;;;;;38.28;26.95;;;;;;;14.15;100.00;101717.63;4936623;29;20019;-75
2023/05/09 00:44:52;;;;;;;35.75;24.67;;;;;;;14.25;100.00;101730.88;4936246;29;20110;-75
2023/05/09 00:47:18;;;;;;;36.67;25.38;;;;;;;14.13;100.00;101703.09;4936076;29;20070;-75
2023/05/09 00:49:43;;;;;;;38.17;25.17;;;;;;;14.27;100.00;101718.66;4936498;29;20030;-76
2023/05/09 00:52:08;;;;;;;39.25;24.42;;;;;;;14.11;100.00;101698.00;4934602;29;20492;-84
2023/05/09 00:54:34;;;;;;;35.00;24.00;;;;;;;14.25;100.00;101717.88;4936262;29;20106;-77
2023/05/09 00:56:59;;;;;;;32.08;24.33;;;;;;;14.05;100.00;101683.63;4936297;29;20384;-75
2023/05/09 00:59:25;;;;;;;35.65;23.25;;;;;;;14.31;100.00;101717.50;4936099;29;20373;-75
2023/05/09 01:01:51;;;;;;;34.22;24.00;;;;;;;14.29;100.00;101717.59;4935998;29;20536;-75
2023/05/09 01:04:16;;;;;;;31.98;22.15;;;;;;;13.81;100.00;101630.69;4936074;29;20028;-76
2023/05/09 01:07:03;;;;;;;30.60;22.23;;;;;;;14.40;100.00;101709.13;4936132;29;20059;-75
2023/05/09 01:09:42;;;;;;;33.47;22.60;;;;;;;14.35;100.00;101705.97;4935805;29;20106;-77
2023/05/09 01:12:16;;;;;;;32.33;21.85;;;;;;;14.34;100.00;101701.72;4935966;29;20027;-85
2023/05/09 01:14:51;;;;;;;32.78;23.33;;;;;;;14.28;100.00;101694.31;4935748;29;20439;-83
2023/05/09 01:17:37;;;;;;;30.85;22.00;;;;;;;14.05;100.00;101660.25;4935883;29;20032;-84
2023/05/09 01:20:35;;;;;;;30.70;21.77;;;;;;;14.17;100.00;101681.19;4935873;29;20024;-76
2023/05/09 01:23:19;;;;;;;31.80;22.25;;;;;;;14.19;100.00;101679.34;4858802;29;20093;-84
2023/05/09 01:25:52;;;;;;;29.95;21.65;;;;;;;14.15;100.00;101680.44;4858943;29;20030;-85
2023/05/09 01:28:32;;;;;;;30.77;21.17;;;;;;;14.15;100.00;101668.28;4858609;29;20034;-77
2023/05/09 01:30:58;;;;;;;30.00;20.85;;;;;;;14.11;100.00;101655.59;4858653;29;20037;-84
2023/05/09 01:33:25;;;;;;;29.95;20.90;;;;;;;14.01;100.00;101639.78;4858368;29;20033;-85
2023/05/09 01:35:58;;;;;;;30.08;20.27;;;;;;;14.05;100.00;101647.28;4843340;29;20553;-85
2023/05/09 01:38:24;;;;;;;26.40;20.80;;;;;;;13.89;100.00;101614.63;4858594;29;20041;-84
2023/05/09 01:40:54;;;;;;;30.88;21.08;;;;;;;13.98;100.00;101629.59;4858553;29;20132;-84
2023/05/09 01:43:21;;;;;;;28.13;20.42;;;;;;;14.13;100.00;101654.56;4858323;29;20422;-76
2023/05/09 01:45:48;;;;;;;29.25;20.40;;;;;;;13.84;100.00;101603.69;4858300;29;20497;-75
2023/05/09 01:48:14;;;;;;;27.23;20.00;;;;;;;14.13;100.00;101649.38;4858528;29;20037;-76
2023/05/09 01:50:42;;;;;;;27.75;20.10;;;;;;;14.06;100.00;101635.97;4858131;29;20105;-77
2023/05/09 01:53:09;;;;;;;29.33;21.27;;;;;;;14.07;100.00;101647.19;4842847;29;20037;-84
2023/05/09 01:55:36;;;;;;;28.90;20.15;;;;;;;14.00;100.00;101625.97;4858331;29;20026;-75
2023/05/09 01:58:04;;;;;;;28.80;19.48;;;;;;;13.90;100.00;101611.91;4858333;29;20183;-77
2023/05/09 02:00:32;;;;;;;28.02;20.58;;;;;;;13.84;100.00;101603.69;4917807;29;20400;-75
2023/05/09 02:02:58;;;;;;;25.30;19.35;;;;;;;13.88;100.00;101620.75;4935489;29;20028;-77
2023/05/09 02:05:27;;;;;;;27.42;18.55;;;;;;;13.66;100.00;101592.69;4935334;29;20027;-86
2023/05/09 02:07:58;;;;;;;27.67;19.50;;;;;;;13.85;100.00;101624.34;4935402;29;20044;-83
2023/05/09 02:10:25;;;;;;;26.40;19.35;;;;;;;13.80;100.00;101623.00;4935250;29;20023;-81
2023/05/09 02:12:51;;;;;;;27.73;19.63;;;;;;;13.60;100.00;101587.91;4935303;29;20039;-81
2023/05/09 02:15:17;;;;;;;28.73;19.35;;;;;;;13.75;100.00;101621.50;4935238;29;20042;-77
2023/05/09 02:17:42;;;;;;;25.95;19.27;;;;;;;13.70;100.00;101610.59;4935116;29;20032;-75
2023/05/09 02:20:12;;;;;;;26.85;19.80;;;;;;;13.42;100.00;101574.34;4935285;29;20027;-76
2023/05/09 02:22:39;;;;;;;26.70;19.48;;;;;;;13.54;100.00;101596.91;4938057;29;20056;-75
2023/05/09 02:25:06;;;;;;;24.50;18.63;;;;;;;13.61;100.00;101616.38;4938962;29;20116;-76
2023/05/09 02:27:33;;;;;;;26.52;20.05;;;;;;;13.55;100.00;101613.31;4939209;29;20079;-75
2023/05/09 02:30:03;;;;;;;27.73;19.15;;;;;;;13.51;100.00;101611.84;4938854;29;20024;-76
2023/05/09 02:32:31;;;;;;;27.10;19.02;;;;;;;13.39;100.00;101600.50;4938856;29;20519;-75
2023/05/09 02:34:58;;;;;;;25.58;18.60;;;;;;;13.55;100.00;101632.31;4938841;29;20386;-76
2023/05/09 02:37:24;;;;;;;26.33;19.52;;;;;;;13.55;100.00;101628.88;4938837;29;20063;-76
2023/05/09 02:39:50;;;;;;;25.00;19.75;;;;;;;13.50;100.00;101626.59;4938757;29;20078;-76
2023/05/09 02:42:20;;;;;;;26.65;20.17;;;;;;;13.40;100.00;101618.53;4938657;29;20548;-76
2023/05/09 02:44:45;;;;;;;25.67;18.65;;;;;;;13.16;100.00;101566.38;4938646;29;20031;-76
2023/05/09 02:47:11;;;;;;;26.13;19.17;;;;;;;13.45;100.00;101631.22;4938809;29;20031;-75
2023/05/09 02:49:36;;;;;;;27.77;18.98;;;;;;;13.44;100.00;101620.00;4938670;29;20034;-75
2023/05/09 02:52:01;;;;;;;27.38;19.38;;;;;;;13.27;100.00;101598.63;4938393;29;20059;-77
2023/05/09 02:54:27;;;;;;;26.77;19.20;;;;;;;13.29;100.00;101608.00;4938645;29;20044;-73
2023/05/09 02:56:52;;;;;;;25.35;18.38;;;;;;;13.30;100.00;101606.25;4938366;29;20043;-76
2023/05/09 02:59:19;;;;;;;25.05;18.15;;;;;;;13.18;100.00;101587.06;4938494;29;20110;-79
2023/05/09 03:01:45;;;;;;;27.05;18.52;;;;;;;13.23;100.00;101597.16;4938579;29;20432;-75
2023/05/09 03:04:10;;;;;;;29.10;18.83;;;;;;;13.22;100.00;101592.91;4938285;29;20032;-82
2023/05/09 03:06:36;;;;;;;26.13;19.33;;;;;;;13.19;100.00;101588.75;4938226;29;20074;-75
2023/05/09 03:09:02;;;;;;;26.92;18.83;;;;;;;13.18;100.00;101592.25;4921193;29;20388;-75
2023/05/09 03:11:28;;;;;;;26.90;18.27;;;;;;;13.03;100.00;101551.69;4948008;28;20034;-86
2023/05/09 03:13:54;;;;;;;28.92;18.88;;;;;;;13.08;100.00;101567.81;4958940;28;20038;-76
2023/05/09 03:16:19;;;;;;;25.65;18.00;;;;;;;13.15;100.00;101582.88;4976426;28;20026;-77
2023/05/09 03:18:44;;;;;;;27.60;18.77;;;;;;;13.14;100.00;101577.78;4976421;28;20501;-77
2023/05/09 03:21:10;;;;;;;29.65;19.80;;;;;;;13.12;100.00;101577.88;4976466;28;20031;-76
2023/05/09 03:23:35;;;;;;;26.50;20.08;;;;;;;13.10;100.00;101573.72;4976627;28;20027;-82
2023/05/09 03:26:00;;;;;;;26.25;18.98;;;;;;;13.14;100.00;101575.19;4976535;28;20106;-80
2023/05/09 03:28:27;;;;;;;27.27;19.02;;;;;;;13.03;100.00;101555.13;4976410;28;20037;-77
2023/05/09 03:30:52;;;;;;;26.65;19.45;;;;;;;12.99;100.00;101558.00;4976139;28;20082;-85
2023/05/09 03:33:17;;;;;;;31.13;19.90;;;;;;;13.15;100.00;101579.44;4976206;28;20022;-83
2023/05/09 03:35:43;;;;;;;26.95;19.35;;;;;;;12.85;100.00;101528.56;4976031;28;20027;-83
2023/05/09 03:38:08;;;;;;;27.85;19.60;;;;;;;13.13;100.00;101578.72;4976085;28;20123;-76
2023/05/09 03:40:34;;;;;;;30.45;20.40;;;;;;;13.11;100.00;101575.38;4976361;28;20034;-77
2023/05/09 03:42:59;;;;;;;28.08;20.92;;;;;;;13.06;100.00;101556.69;4976134;28;20027;-76
2023/05/09 03:45:25;;;;;;;29.40;20.38;;;;;;;13.14;100.00;101570.84;4976062;28;20022;-77
2023/05/09 03:47:50;;;;;;;30.13;21.30;;;;;;;13.12;100.00;101567.50;4975687;28;20110;-76
2023/05/09 03:50:16;;;;;;;29.30;20.40;;;;;;;12.85;100.00;101514.75;4975859;28;20360;-76
2023/05/09 03:52:41;;;;;;;28.35;21.00;;;;;;;13.13;100.00;101557.97;4975892;28;20042;-77
2023/05/09 03:55:07;;;;;;;31.23;21.58;;;;;;;13.12;100.00;101553.72;4976012;28;20106;-77
2023/05/09 03:57:34;;;;;;;27.95;20.75;;;;;;;12.81;100.00;101500.34;4975877;28;20062;-77
2023/05/09 03:59:59;;;;;;;33.97;22.83;;;;;;;13.13;100.00;101564.00;4975806;28;20438;-76
2023/05/09 04:02:25;;;;;;;31.67;22.40;;;;;;;13.07;100.00;101545.38;4957910;28;20043;-76
2023/05/09 04:04:51;;;;;;;30.30;21.73;;;;;;;13.10;100.00;101545.19;4958280;28;20030;-76
2023/05/09 04:07:17;;;;;;;33.22;22.15;;;;;;;13.10;100.00;101542.63;4975674;28;20039;-76
2023/05/09 04:09:43;;;;;;;31.35;21.98;;;;;;;13.11;100.00;101545.09;4975782;28;20027;-76
2023/05/09 04:12:08;;;;;;;30.33;21.85;;;;;;;13.12;100.00;101541.56;4975492;28;20027;-76
2023/05/09 04:14:34;;;;;;;32.90;22.63;;;;;;;13.12;100.00;101535.56;4975594;28;20050;-77
2023/05/09 04:16:59;;;;;;;31.73;22.42;;;;;;;12.85;100.00;101492.25;4975318;28;20086;-76
2023/05/09 04:19:24;;;;;;;31.90;21.70;;;;;;;13.09;100.00;101523.63;4975521;28;20022;-76
2023/05/09 04:21:50;;;;;;;28.00;20.45;;;;;;;13.13;100.00;101521.66;4975483;28;20094;-75
2023/05/09 04:24:15;;;;;;;31.13;21.58;;;;;;;13.09;100.00;101515.84;4975380;28;20030;-78
2023/05/09 04:26:41;;;;;;;33.95;21.23;;;;;;;13.14;100.00;101525.91;4975298;28;20442;-79
2023/05/09 04:29:06;;;;;;;29.98;20.45;;;;;;;13.17;100.00;101524.00;4975426;28;20030;-79
2023/05/09 04:31:31;;;;;;;30.98;21.90;;;;;;;13.13;100.00;101512.13;4975251;28;20062;-75
2023/05/09 04:33:57;;;;;;;30.52;21.80;;;;;;;13.20;100.00;101513.44;4975017;28;20108;-81
2023/05/09 04:36:23;;;;;;;28.30;20.65;;;;;;;13.22;100.00;101528.06;4974991;28;20090;-76
2023/05/09 04:38:48;;;;;;;31.85;20.45;;;;;;;13.14;100.00;101505.19;4974886;28;20118;-80
2023/05/09 04:41:13;;;;;;;29.90;20.52;;;;;;;13.28;100.00;101520.75;4957334;28;20130;-79
2023/05/09 04:43:39;;;;;;;29.25;20.73;;;;;;;13.21;100.00;101498.72;4974477;28;20538;-77
2023/05/09 04:46:05;;;;;;;29.60;19.17;;;;;;;13.39;100.00;101518.31;4973088;28;20435;-81
2023/05/09 04:48:30;;;;;;;30.10;20.55;;;;;;;13.09;100.00;101458.81;4974853;28;20022;-76
2023/05/09 04:50:55;;;;;;;27.15;20.27;;;;;;;13.28;100.00;101479.25;4974518;28;20505;-77
2023/05/09 04:53:20;;;;;;;25.80;19.25;;;;;;;13.38;100.00;101487.28;4974897;28;20034;-81
2023/05/09 04:55:46;;;;;;;24.55;19.27;;;;;;;13.57;100.00;101507.66;4974803;28;20018;-80
2023/05/09 04:58:11;;;;;;;25.27;17.92;;;;;;;13.64;100.00;101507.16;4974669;28;20086;-76
2023/05/09 05:00:37;;;;;;;26.27;18.58;;;;;;;13.59;100.00;101483.28;4956902;28;20376;-80
2023/05/09 05:03:02;;;;;;;27.52;18.63;;;;;;;13.81;100.00;101503.47;4974576;28;20442;-77
2023/05/09 05:05:27;;;;;;;24.25;18.05;;;;;;;13.79;100.00;101487.16;4974401;28;20058;-80
2023/05/09 05:07:53;;;;;;;23.63;18.02;;;;;;;13.97;100.00;101492.91;4974661;28;20030;-77
2023/05/09 05:10:18;;;;;;;26.05;17.73;;;;;;;14.01;100.00;101486.56;4974553;28;20023;-76
2023/05/09 05:12:44;;;;;;;21.58;16.42;;;;;;;14.07;100.00;101486.19;4974511;28;20483;-78
2023/05/09 05:15:10;;;;;;;23.13;17.60;;;;;;;14.09;100.00;101488.66;4956495;28;20062;-78
2023/05/09 05:17:36;;;;;;;23.20;16.58;;;;;;;13.93;100.00;101447.28;4974371;28;20425;-76
2023/05/09 05:20:05;;;;;;;19.77;15.68;;;;;;;13.91;100.00;101437.03;4974296;28;20032;-75
2023/05/09 05:22:30;;;;;;;21.58;16.63;;;;;;;14.03;100.00;101451.75;4974412;28;20022;-75
2023/05/09 05:24:55;;;;;;;22.75;16.92;;;;;;;14.10;100.00;101465.19;4974373;28;20019;-75
2023/05/09 05:27:21;;;;;;;23.48;16.63;;;;;;;13.85;100.00;101416.66;4974477;28;20053;-75
2023/05/09 05:29:46;;;;;;;22.02;16.70;;;;;;;13.99;100.00;101428.72;4974419;28;20375;-75
2023/05/09 05:32:11;;;;;;;23.40;17.20;;;;;;;14.21;100.00;101457.47;4956737;28;20470;-72
2023/05/09 05:34:38;;;;;;;26.25;16.60;;;;;;;14.15;100.00;101437.09;4954867;28;20042;-75
2023/05/09 05:37:03;;;;;;;23.05;17.33;;;;;;;14.28;100.00;101452.72;4954616;29;20023;-75
2023/05/09 05:39:29;;;;;;;22.80;17.30;;;;;;;14.40;100.00;101449.25;4954778;29;20038;-76
2023/05/09 05:41:54;;;;;;;22.08;17.08;;;;;;;14.52;100.00;101443.25;4954538;29;20102;-76
2023/05/09 05:44:19;;;;;;;22.80;15.98;;;;;;;14.68;100.00;101444.78;4954823;29;20047;-76
2023/05/09 05:46:45;;;;;;;21.15;16.48;;;;;;;14.72;100.00;101430.63;4954670;29;20394;-79
2023/05/09 05:49:10;;;;;;;24.40;17.45;;;;;;;14.93;100.00;101437.72;4954642;29;20035;-80
2023/05/09 05:51:36;;;;;;;22.48;16.25;;;;;;;14.98;100.00;101445.19;4954277;29;20058;-75
2023/05/09 05:54:01;;;;;;;19.48;15.63;;;;;;;14.99;100.00;101439.06;4954677;29;20399;-76
2023/05/09 05:56:26;;;;;;;21.77;16.48;;;;;;;15.03;100.00;101437.06;4954458;29;20066;-77
2023/05/09 05:58:52;;;;;;;19.42;15.88;;;;;;;14.88;100.00;101398.22;4954611;29;20487;-78
2023/05/09 06:01:18;;;;;;;21.48;16.10;;;;;;;14.52;100.00;101322.88;4937259;29;20039;-77
2023/05/09 06:03:43;;;;;;;21.25;16.15;;;;;;;15.15;100.00;101400.59;4954382;29;20387;-76
2023/05/09 06:06:09;;;;;;;22.58;16.65;;;;;;;15.42;100.00;101428.94;4954411;29;20032;-76
2023/05/09 06:08:34;;;;;;;21.63;15.93;;;;;;;15.55;100.00;101428.91;4954540;29;20065;-76
2023/05/09 06:11:00;;;;;;;19.05;15.00;;;;;;;15.47;100.00;101406.03;4937154;29;20086;-76
2023/05/09 06:13:25;;;;;;;22.88;15.65;;;;;;;15.70;100.00;101417.34;4954449;29;20114;-76
2023/05/09 06:15:54;;;;;;;21.15;15.75;;;;;;;15.43;100.00;101364.72;4954475;29;20035;-76
2023/05/09 06:18:20;;;;;;;17.85;15.00;;;;;;;15.71;100.00;101408.59;4954392;29;20399;-76
2023/05/09 06:20:45;;;;;;;21.00;15.43;;;;;;;15.68;100.00;101410.59;4954253;29;20078;-79
2023/05/09 06:23:10;;;;;;;21.05;15.23;;;;;;;15.60;100.00;101398.16;4954033;29;20474;-76
2023/05/09 06:25:35;;;;;;;21.63;16.10;;;;;;;15.53;100.00;101389.09;4954411;29;20110;-77
2023/05/09 06:28:03;;;;;;;19.40;15.07;;;;;;;15.48;100.00;101388.63;4937092;29;20079;-77
2023/05/09 06:30:28;;;;;;;19.60;15.23;;;;;;;15.49;100.00;101404.13;4954443;29;20055;-78
2023/05/09 06:32:54;;;;;;;22.00;15.20;;;;;;;14.83;100.00;101306.69;4954283;29;20078;-77
2023/05/09 06:35:19;;;;;;;19.38;14.68;;;;;;;15.40;100.00;101394.41;4954295;29;20576;-74
2023/05/09 06:37:45;;;;;;;19.90;15.40;;;;;;;15.26;100.00;101379.00;4953799;29;20027;-77
2023/05/09 06:40:10;;;;;;;18.33;14.55;;;;;;;15.47;100.00;101397.38;4954162;29;20038;-76
2023/05/09 06:42:35;;;;;;;20.17;15.68;;;;;;;15.39;100.00;101390.16;4954296;29;20024;-75
2023/05/09 06:45:01;;;;;;;19.65;15.15;;;;;;;15.46;100.00;101396.56;4954379;29;20038;-77
2023/05/09 06:47:26;;;;;;;18.25;14.57;;;;;;;15.49;100.00;101395.50;4955407;29;20027;-78
2023/05/09 06:49:52;;;;;;;19.23;15.60;;;;;;;15.51;100.00;101391.00;4961049;29;20031;-84
2023/05/09 06:52:17;;;;;;;19.20;15.25;;;;;;;15.57;100.00;101390.56;4957865;29;20039;-87
2023/05/09 06:54:42;;;;;;;17.77;14.50;;;;;;;15.51;100.00;101367.56;4958548;29;20436;-79
2023/05/09 06:57:08;;;;;;;19.67;14.98;;;;;;;15.57;99.89;101359.31;4957866;29;20032;-78
2023/05/09 06:59:33;;;;;;;19.45;14.88;;;;;;;15.74;100.00;101376.31;4956606;29;20024;-88
2023/05/09 07:01:58;;;;;;;19.50;14.85;;;;;;;15.88;99.56;101383.06;4954843;29;20024;-83
2023/05/09 07:04:24;;;;;;;18.23;14.65;;;;;;;16.00;99.77;101376.91;4953052;28;20024;-72
2023/05/09 07:06:49;;;;;;;18.55;15.13;;;;;;;15.99;98.54;101344.81;4954880;28;20027;-89
2023/05/09 07:09:19;;;;;;;18.13;14.40;;;;;;;16.01;97.59;101329.06;4957539;29;20035;-87
2023/05/09 07:11:44;;;;;;;17.67;14.38;;;;;;;16.30;96.86;101366.69;4959352;29;20027;-78
2023/05/09 07:14:10;;;;;;;17.55;14.05;;;;;;;16.45;96.75;101366.44;4942010;29;20039;-72
2023/05/09 07:16:35;;;;;;;17.80;13.52;;;;;;;16.43;96.15;101360.53;4960524;29;20043;-83
2023/05/09 07:19:00;;;;;;;15.00;13.00;;;;;;;16.23;95.51;101336.88;4957913;29;20483;-88
2023/05/09 07:21:26;;;;;;;16.17;12.98;;;;;;;16.34;95.39;101352.50;4940241;29;20062;-83
2023/05/09 07:23:51;;;;;;;18.17;11.52;;;;;;;16.30;94.81;101358.88;4957056;29;20483;-87
2023/05/09 07:26:16;;;;;;;14.02;11.25;;;;;;;16.05;96.14;101340.91;4957242;29;20090;-88
2023/05/09 07:28:42;;;;;;;14.85;11.40;;;;;;;15.90;95.99;101335.09;4948432;28;20136;-84
2023/05/09 07:31:08;;;;;;;15.43;11.75;;;;;;;15.90;97.74;101345.53;4937884;29;20103;-89
2023/05/09 07:33:33;;;;;;;15.25;11.40;;;;;;;15.80;97.58;101348.94;4937671;29;20032;-89
2023/05/09 07:35:59;;;;;;;16.23;11.10;;;;;;;15.76;99.01;101357.00;4938012;29;20046;-84
2023/05/09 07:38:25;;;;;;;14.68;11.13;;;;;;;15.59;98.94;101327.94;4937633;29;20035;-90
2023/05/09 07:40:52;;;;;;;16.35;11.57;;;;;;;15.51;99.72;101331.13;4937514;29;20059;-82
2023/05/09 07:43:17;;;;;;;14.00;11.07;;;;;;;15.54;98.97;101345.72;4937701;29;20059;-87
2023/05/09 07:45:42;;;;;;;14.93;10.77;;;;;;;15.47;99.86;101345.34;4935350;29;20104;-82
2023/05/09 07:48:08;;;;;;;13.27;10.65;;;;;;;15.23;100.00;101306.34;4937477;29;20086;-86
2023/05/09 07:50:33;;;;;;;13.38;10.38;;;;;;;15.50;100.00;101342.50;4937305;29;21327;-81
2023/05/09 07:52:59;;;;;;;14.25;11.05;;;;;;;15.43;100.00;101339.50;4937308;29;20486;-85
2023/05/09 07:55:24;;;;;;;13.80;10.68;;;;;;;15.16;100.00;101298.19;4941866;28;20034;-86
2023/05/09 07:57:50;;;;;;;12.32;10.32;;;;;;;15.30;100.00;101336.19;4956529;29;20111;-77
2023/05/09 08:00:15;;;;;;;12.00;9.93;;;;;;;15.24;100.00;101328.84;4955736;29;20480;-88
2023/05/09 08:02:41;;;;;;;12.02;10.25;;;;;;;15.28;100.00;101334.66;4956347;29;20476;-81
2023/05/09 08:05:07;;;;;;;11.52;9.82;;;;;;;15.25;100.00;101332.28;4956392;29;20065;-88
2023/05/09 08:07:32;;;;;;;11.10;9.80;;;;;;;15.31;100.00;101327.44;4956388;29;20031;-88
2023/05/09 08:09:57;;;;;;;13.02;10.75;;;;;;;15.27;100.00;101319.97;4956282;29;20506;-88
2023/05/09 08:12:23;;;;;;;12.73;10.55;;;;;;;15.25;100.00;101320.09;4956101;29;20023;-89
2023/05/09 08:14:48;;;;;;;12.80;10.13;;;;;;;15.22;100.00;101317.72;4956490;29;20033;-90
2023/05/09 08:17:13;;;;;;;13.18;9.93;;;;;;;14.98;100.00;101294.34;4938146;29;20447;-88
2023/05/09 08:19:39;;;;;;;13.80;10.75;;;;;;;15.06;100.00;101296.41;4955079;28;20114;-91
2023/05/09 08:22:04;;;;;;;17.55;10.85;;;;;;;15.14;100.00;101309.63;4956136;29;20024;-89
2023/05/09 08:24:31;;;;;;;11.60;9.60;;;;;;;15.16;100.00;101306.00;4955884;29;20551;-81
2023/05/09 08:26:56;;;;;;;11.18;8.60;;;;;;;15.17;100.00;101305.06;4956020;29;20023;-85
2023/05/09 08:29:22;;;;;;;11.15;9.02;;;;;;;15.11;100.00;101268.25;4955906;29;20438;-82
2023/05/09 08:31:47;;;;;;;11.30;9.02;;;;;;;15.26;100.00;101266.28;4955868;29;20051;-83
2023/05/09 08:34:13;;;;;;;11.80;8.85;;;;;;;15.33;100.00;101264.84;4938409;29;20067;-85
2023/05/09 08:36:39;;;;;;;10.68;8.52;;;;;;;15.50;100.00;101288.66;4956114;29;20062;-84
2023/05/09 08:39:05;;;;;;;10.90;8.68;;;;;;;15.53;100.00;101287.59;4955536;29;20573;-76
2023/05/09 08:41:34;;;;;;;11.50;8.85;;;;;;;15.60;100.00;101288.81;4955730;29;20121;-86
2023/05/09 08:44:00;;;;;;;11.20;9.20;;;;;;;15.74;100.00;101282.56;4955353;29;20411;-85
2023/05/09 08:46:35;;;;;;;11.52;8.85;;;;;;;15.95;100.00;101275.69;4955589;29;20020;-84
2023/05/09 08:49:00;;;;;;;10.23;7.93;;;;;;;16.13;100.00;101280.41;4955727;29;20130;-86
2023/05/09 08:51:27;;;;;;;10.25;7.97;;;;;;;16.18;100.00;101283.44;4953684;28;20126;-74
2023/05/09 08:53:53;;;;;;;8.90;7.65;;;;;;;16.13;100.00;101256.94;4956128;29;20062;-81
2023/05/09 08:56:18;;;;;;;8.65;7.07;;;;;;;16.28;100.00;101277.38;4938353;29;20073;-82
2023/05/09 08:58:44;;;;;;;9.55;7.15;;;;;;;15.90;100.00;101214.47;4954993;29;20132;-85
2023/05/09 09:01:12;;;;;;;10.25;7.80;;;;;;;16.05;100.00;101242.75;4955417;29;20046;-79
2023/05/09 09:03:38;;;;;;;11.93;7.97;;;;;;;16.18;100.00;101270.41;4955264;29;20471;-83
2023/05/09 09:06:07;;;;;;;12.10;7.75;;;;;;;15.98;100.00;101253.75;4955803;29;20050;-80
2023/05/09 09:08:34;;;;;;;9.70;8.27;;;;;;;15.72;100.00;101207.16;4955546;29;20055;-83
2023/05/09 09:10:59;;;;;;;10.57;8.13;;;;;;;16.18;100.00;101268.63;4938251;29;20038;-79
2023/05/09 09:13:25;;;;;;;10.40;8.20;;;;;;;16.20;100.00;101273.72;4955441;29;20027;-77
2023/05/09 09:15:52;;;;;;;10.98;7.82;;;;;;;16.01;100.00;101237.88;4955273;29;20066;-79
2023/05/09 09:18:22;;;;;;;12.55;7.55;;;;;;;16.14;100.00;101256.00;4955132;29;20479;-77
2023/05/09 09:20:52;;;;;;;10.32;7.95;;;;;;;16.12;100.00;101245.66;4955160;29;20023;-79
2023/05/09 09:23:19;;;;;;;9.63;8.52;;;;;;;16.39;100.00;101260.88;4954884;29;20494;-75
2023/05/09 09:25:46;;;;;;;9.40;7.85;;;;;;;16.38;100.00;101263.63;4954716;29;20035;-77
2023/05/09 09:28:11;;;;;;;9.52;7.53;;;;;;;16.37;100.00;101254.16;4953373;29;20110;-79
2023/05/09 09:30:43;;;;;;;9.45;7.80;;;;;;;16.28;100.00;101243.50;4954766;28;20467;-76
2023/05/09 09:33:08;;;;;;;8.32;6.28;;;;;;;16.19;100.00;101259.03;4955080;29;20077;-76
2023/05/09 09:35:38;;;;;;;10.77;6.53;;;;;;;15.91;100.00;101252.59;4954874;29;20031;-80
2023/05/09 09:38:05;;;;;;;8.65;6.30;;;;;;;15.71;100.00;101247.16;4954767;29;20031;-75
2023/05/09 09:40:30;;;;;;;9.15;6.10;;;;;;;15.46;100.00;101229.16;4954484;29;20070;-75
2023/05/09 09:42:55;;;;;;;8.30;6.18;;;;;;;15.48;100.00;101240.28;4954888;29;20388;-79
2023/05/09 09:45:21;;;;;;;8.63;5.93;;;;;;;15.53;100.00;101253.75;4954886;29;20027;-75
2023/05/09 09:47:48;;;;;;;8.07;6.10;;;;;;;15.50;100.00;101222.75;4954844;29;20061;-75
2023/05/09 09:50:18;;;;;;;8.10;5.88;;;;;;;15.68;100.00;101243.97;4954590;29;20435;-74
2023/05/09 09:52:54;;;;;;;7.90;5.97;;;;;;;15.77;100.00;101243.25;4953086;29;20376;-74
2023/05/09 09:55:21;;;;;;;8.27;6.25;;;;;;;15.84;100.00;101223.59;4954296;29;20541;-74
2023/05/09 09:57:47;;;;;;;7.00;5.47;;;;;;;16.09;100.00;101224.25;4953310;29;20031;-79
2023/05/09 10:00:17;;;;;;;6.90;4.97;;;;;;;15.83;100.00;101200.25;4954615;29;20356;-78
2023/05/09 10:02:48;;;;;;;6.47;4.97;;;;;;;15.86;100.00;101223.47;4954782;29;20111;-74
2023/05/09 10:05:21;;;;;;;7.07;4.95;;;;;;;15.89;100.00;101223.22;4959460;28;20027;-74
2023/05/09 10:08:00;;;;;;;7.88;5.00;;;;;;;15.94;100.00;101213.28;4973621;28;20038;-75
2023/05/09 10:10:27;;;;;;;7.70;5.18;;;;;;;15.93;100.00;101189.03;4973730;28;20070;-75
2023/05/09 10:12:57;;;;;;;7.05;4.88;;;;;;;16.21;100.00;101208.47;4973685;28;20027;-75
2023/05/09 10:15:23;;;;;;;8.32;5.45;;;;;;;16.47;100.00;101219.38;4973672;28;20435;-77
2023/05/09 10:17:54;;;;;;;6.80;5.30;;;;;;;16.38;100.00;101203.66;4973693;28;20489;-74
2023/05/09 10:20:21;;;;;;;6.47;4.65;;;;;;;16.33;100.00;101202.28;4973656;28;20027;-74
2023/05/09 10:22:47;;;;;;;7.47;5.07;;;;;;;16.07;100.00;101167.06;4973620;28;20027;-75
2023/05/09 10:25:18;;;;;;;8.52;5.47;;;;;;;16.37;100.00;101220.25;4956295;28;20085;-75
2023/05/09 10:27:45;;;;;;;7.67;4.97;;;;;;;16.18;100.00;101213.91;4956705;28;20026;-74
2023/05/09 10:30:16;;;;;;;9.45;5.68;;;;;;;16.11;100.00;101214.53;4973757;28;20383;-74
2023/05/09 10:32:51;;;;;;;7.93;5.90;;;;;;;16.06;100.00;101207.09;4973454;28;20027;-74
2023/05/09 10:35:19;;;;;;;7.90;5.90;;;;;;;16.04;100.00;101201.19;4973119;28;20027;-74
2023/05/09 10:37:45;;;;;;;8.32;5.80;;;;;;;16.15;100.00;101205.53;4972929;28;20023;-74
2023/05/09 10:40:13;;;;;;;6.93;5.63;;;;;;;16.06;100.00;101200.09;4950420;28;20050;-73
2023/05/09 10:42:43;;;;;;;8.07;5.75;;;;;;;16.00;100.00;101191.94;4956100;28;20026;-77
2023/05/09 10:45:10;;;;;;;8.18;5.57;;;;;;;15.94;100.00;101184.63;4957804;29;20027;-78
2023/05/09 10:47:36;;;;;;;7.38;5.88;;;;;;;15.99;100.00;101187.69;4957620;29;20471;-80
2023/05/09 10:50:02;;;;;;;9.93;6.15;;;;;;;15.88;100.00;101174.69;4957571;29;20030;-76
2023/05/09 10:52:32;;;;;;;7.45;6.13;;;;;;;15.64;100.00;101156.66;4957544;29;20395;-73
2023/05/09 10:55:00;;;;;;;8.25;6.18;;;;;;;15.74;100.00;101178.41;4957316;29;20020;-75
2023/05/09 10:57:27;;;;;;;8.00;6.10;;;;;;;15.56;100.00;101154.63;4939952;29;20074;-79
2023/05/09 10:59:54;;;;;;;8.13;6.57;;;;;;;15.46;100.00;101169.31;4957620;29;20102;-78
2023/05/09 11:02:20;;;;;;;8.40;6.55;;;;;;;15.33;100.00;101152.97;4957562;29;20038;-79